createdAt,value
2019-05-22T00:02:37.634Z,10.60
2019-05-22T00:05:15.046Z,10.60
2019-05-22T00:07:47.778Z,10.60
2019-05-22T00:10:19.900Z,10.60
2019-05-22T00:12:50.360Z,10.60
2019-05-22T00:15:22.190Z,10.60
2019-05-22T00:17:54.381Z,10.60
2019-05-22T00:20:27.199Z,10.60
2019-05-22T00:22:59.729Z,10.60
2019-05-22T00:25:33.278Z,10.60
2019-05-22T00:28:04.739Z,10.60
2019-05-22T00:30:38.916Z,10.60
2019-05-22T00:33:09.827Z,10.60
2019-05-22T00:35:39.782Z,10.60
2019-05-22T00:38:11.920Z,10.60
2019-05-22T00:40:43.014Z,10.60
2019-05-22T00:43:14.377Z,10.60
2019-05-22T00:45:46.084Z,10.60
2019-05-22T00:48:18.810Z,10.60
2019-05-22T00:51:09.753Z,10.60
2019-05-22T00:53:51.832Z,10.60
2019-05-22T00:56:35.626Z,10.60
2019-05-22T00:59:11.869Z,10.60
2019-05-22T01:01:45.766Z,10.60
2019-05-22T01:04:16.966Z,10.60
2019-05-22T01:06:48.621Z,10.50
2019-05-22T01:09:25.311Z,10.60
2019-05-22T01:11:56.425Z,10.60
2019-05-22T01:14:42.013Z,10.60
2019-05-22T01:16:59.537Z,10.60
2019-05-22T01:19:30.208Z,10.60
2019-05-22T01:22:01.659Z,10.60
2019-05-22T01:24:33.286Z,10.60
2019-05-22T01:27:04.608Z,10.60
2019-05-22T01:29:35.990Z,10.60
2019-05-22T01:32:18.357Z,10.50
2019-05-22T01:34:50.542Z,10.60
2019-05-22T01:37:21.924Z,10.60
2019-05-22T01:40:02.397Z,10.60
2019-05-22T01:42:37.116Z,10.50
2019-05-22T01:45:08.754Z,10.60
2019-05-22T01:47:56.632Z,10.60
2019-05-22T01:50:49.254Z,10.60
2019-05-22T01:53:21.713Z,10.60
2019-05-22T01:56:06.493Z,10.60
2019-05-22T01:58:39.152Z,10.60
2019-05-22T02:01:27.367Z,10.60
2019-05-22T02:03:59.213Z,10.60
2019-05-22T02:06:28.408Z,10.60
2019-05-22T02:09:14.095Z,10.60
2019-05-22T02:11:45.843Z,10.60
2019-05-22T02:14:17.579Z,10.60
2019-05-22T02:16:56.912Z,10.60
2019-05-22T02:19:22.950Z,10.60
2019-05-22T02:21:55.232Z,10.60
2019-05-22T02:24:25.079Z,10.70
2019-05-22T02:26:55.109Z,10.60
2019-05-22T02:29:26.314Z,10.60
2019-05-22T02:31:58.156Z,10.60
2019-05-22T02:34:30.154Z,10.60
2019-05-22T02:37:00.640Z,10.60
2019-05-22T02:39:35.000Z,10.60
2019-05-22T02:42:15.552Z,10.60
2019-05-22T02:44:46.836Z,10.60
2019-05-22T02:47:20.698Z,10.60
2019-05-22T02:49:49.956Z,10.60
2019-05-22T02:52:20.309Z,10.60
2019-05-22T02:54:49.953Z,10.50
2019-05-22T02:57:19.597Z,10.50
2019-05-22T02:59:49.271Z,10.50
2019-05-22T03:02:19.573Z,10.50
2019-05-22T03:05:00.409Z,10.50
2019-05-22T03:07:31.453Z,10.50
2019-05-22T03:10:01.771Z,10.40
2019-05-22T03:12:32.925Z,10.40
2019-05-22T03:15:02.707Z,10.40
2019-05-22T03:17:33.430Z,10.40
2019-05-22T03:20:09.134Z,10.40
2019-05-22T03:22:45.466Z,10.40
2019-05-22T03:25:17.565Z,10.40
2019-05-22T03:27:50.296Z,10.40
2019-05-22T03:30:24.720Z,10.40
2019-05-22T03:32:57.389Z,10.30
2019-05-22T03:35:28.240Z,10.30
2019-05-22T03:38:00.055Z,10.30
2019-05-22T03:40:30.867Z,10.30
2019-05-22T03:43:04.002Z,10.30
2019-05-22T03:45:36.130Z,10.30
2019-05-22T03:48:08.665Z,10.30
2019-05-22T03:50:39.107Z,10.20
2019-05-22T03:53:17.987Z,10.20
2019-05-22T03:55:48.562Z,10.30
2019-05-22T03:58:18.664Z,10.20
2019-05-22T04:00:50.671Z,10.20
2019-05-22T04:03:24.292Z,10.20
2019-05-22T04:05:54.411Z,10.20
2019-05-22T04:08:29.302Z,10.20
2019-05-22T04:11:01.860Z,10.20
2019-05-22T04:13:32.818Z,10.20
2019-05-22T04:16:04.220Z,10.20
2019-05-22T04:18:35.838Z,10.20
2019-05-22T04:21:05.940Z,10.30
2019-05-22T04:23:37.676Z,10.30
2019-05-22T04:26:11.849Z,10.30
2019-05-22T04:28:48.806Z,10.30
2019-05-22T04:31:19.197Z,10.30
2019-05-22T04:33:48.507Z,10.40
2019-05-22T04:36:19.898Z,10.40
2019-05-22T04:38:51.090Z,10.40
2019-05-22T04:41:22.838Z,10.40
2019-05-22T04:43:52.399Z,10.40
2019-05-22T04:46:21.810Z,10.40
2019-05-22T04:48:54.369Z,10.40
2019-05-22T04:51:27.013Z,10.50
2019-05-22T04:53:58.196Z,10.50
2019-05-22T04:56:30.225Z,10.50
2019-05-22T04:59:02.038Z,10.50
2019-05-22T05:01:34.054Z,10.50
2019-05-22T05:04:03.882Z,10.60
2019-05-22T05:06:37.582Z,10.60
2019-05-22T05:09:09.134Z,10.70
2019-05-22T05:11:39.133Z,10.70
2019-05-22T05:14:08.431Z,10.70
2019-05-22T05:16:38.026Z,10.80
2019-05-22T05:19:07.493Z,10.90
2019-05-22T05:21:38.297Z,11.00
2019-05-22T05:24:07.973Z,11.10
2019-05-22T05:26:37.831Z,11.20
2019-05-22T05:29:26.249Z,11.20
2019-05-22T05:31:56.359Z,11.20
2019-05-22T05:34:35.653Z,11.20
2019-05-22T05:37:07.506Z,11.20
2019-05-22T05:40:15.033Z,11.20
2019-05-22T05:42:44.494Z,11.30
2019-05-22T05:45:14.094Z,11.20
2019-05-22T05:47:43.253Z,11.20
2019-05-22T05:50:12.985Z,11.30
2019-05-22T05:52:42.624Z,11.20
2019-05-22T05:55:13.669Z,11.20
2019-05-22T05:58:23.706Z,11.10
2019-05-22T06:00:56.075Z,11.10
2019-05-22T06:03:33.582Z,11.10
2019-05-22T06:06:32.966Z,11.20
2019-05-22T06:09:04.597Z,11.20
2019-05-22T06:11:45.465Z,11.30
2019-05-22T06:14:20.486Z,11.40
2019-05-22T06:18:02.249Z,11.30
2019-05-22T06:20:32.581Z,11.40
2019-05-22T06:23:48.308Z,11.40
2019-05-22T06:26:54.786Z,11.50
2019-05-22T06:29:27.952Z,11.60
2019-05-22T06:32:55.292Z,11.70
2019-05-22T06:35:26.828Z,11.80
2019-05-22T06:38:14.037Z,12.00
2019-05-22T06:40:44.531Z,12.00
2019-05-22T06:43:59.920Z,12.10
2019-05-22T06:46:46.676Z,12.20
2019-05-22T06:49:44.622Z,12.10
2019-05-22T06:52:14.318Z,12.10
2019-05-22T06:54:43.534Z,12.00
2019-05-22T06:57:28.597Z,12.00
2019-05-22T07:00:12.351Z,12.10
2019-05-22T07:02:32.070Z,12.10
2019-05-22T07:05:01.293Z,12.10
2019-05-22T07:07:31.210Z,12.20
2019-05-22T07:10:01.322Z,12.10
2019-05-22T07:12:31.494Z,12.10
2019-05-22T07:15:25.549Z,12.20
2019-05-22T07:17:55.653Z,12.20
2019-05-22T07:20:27.729Z,12.20
2019-05-22T07:22:58.630Z,12.20
2019-05-22T07:25:29.246Z,12.30
2019-05-22T07:27:59.306Z,12.50
2019-05-22T07:30:28.870Z,12.90
2019-05-22T07:32:58.733Z,13.10
2019-05-22T07:35:45.626Z,13.30
2019-05-22T07:37:59.227Z,13.40
2019-05-22T07:40:29.012Z,13.80
2019-05-22T07:42:58.059Z,14.20
2019-05-22T07:45:28.370Z,14.20
2019-05-22T07:47:58.353Z,14.50
2019-05-22T07:50:29.105Z,14.50
2019-05-22T07:52:58.822Z,14.80
2019-05-22T07:55:30.107Z,15.20
2019-05-22T07:58:07.932Z,15.50
2019-05-22T08:00:37.051Z,15.90
2019-05-22T08:03:06.909Z,15.80
2019-05-22T08:05:38.753Z,15.80
2019-05-22T08:08:08.590Z,16.30
2019-05-22T08:10:38.098Z,16.70
2019-05-22T08:13:08.126Z,17.20
2019-05-22T08:15:39.646Z,17.40
2019-05-22T08:18:09.460Z,17.50
2019-05-22T08:20:39.170Z,17.10
2019-05-22T08:23:09.445Z,17.30
2019-05-22T08:25:39.870Z,17.50
2019-05-22T08:28:10.204Z,17.30
2019-05-22T08:30:39.282Z,17.90
2019-05-22T08:33:11.967Z,18.40
2019-05-22T08:35:41.073Z,17.90
2019-05-22T08:38:13.020Z,17.80
2019-05-22T08:40:42.138Z,17.60
2019-05-22T08:43:11.923Z,17.40
2019-05-22T08:45:40.872Z,17.50
2019-05-22T08:48:09.970Z,17.20
2019-05-22T08:50:41.631Z,17.20
2019-05-22T08:53:13.380Z,17.80
2019-05-22T08:55:43.571Z,17.50
2019-05-22T08:58:14.583Z,16.90
2019-05-22T09:00:43.966Z,17.00
2019-05-22T09:03:13.521Z,17.10
2019-05-22T09:05:43.089Z,17.40
2019-05-22T09:08:13.084Z,18.00
2019-05-22T09:10:42.833Z,18.20
2019-05-22T09:13:12.595Z,17.80
2019-05-22T09:15:43.468Z,17.80
2019-05-22T09:18:12.533Z,17.80
2019-05-22T09:20:49.281Z,17.60
2019-05-22T09:23:12.906Z,17.80
2019-05-22T09:25:41.892Z,17.50
2019-05-22T09:28:11.289Z,17.30
2019-05-22T09:30:40.707Z,17.30
2019-05-22T09:33:11.521Z,17.00
2019-05-22T09:35:41.008Z,17.00
2019-05-22T09:38:10.324Z,16.90
2019-05-22T09:40:39.925Z,17.20
2019-05-22T09:43:09.502Z,17.30
2019-05-22T09:45:38.431Z,16.70
2019-05-22T09:48:07.980Z,17.00
2019-05-22T09:50:37.290Z,17.00
2019-05-22T09:53:07.898Z,17.30
2019-05-22T09:55:37.275Z,17.50
2019-05-22T09:58:06.780Z,17.60
2019-05-22T10:00:36.285Z,17.30
2019-05-22T10:03:05.606Z,17.30
2019-05-22T10:05:34.752Z,17.50
2019-05-22T10:08:04.394Z,17.80
2019-05-22T10:10:33.523Z,18.00
2019-05-22T10:13:02.856Z,17.90
2019-05-22T10:15:32.908Z,17.80
2019-05-22T10:18:02.343Z,17.70
2019-05-22T10:20:31.447Z,17.70
2019-05-22T10:23:14.895Z,17.90
2019-05-22T10:25:33.209Z,17.80
2019-05-22T10:28:02.533Z,17.60
2019-05-22T10:30:32.118Z,17.60
2019-05-22T10:33:01.275Z,17.90
2019-05-22T10:35:31.597Z,18.30
2019-05-22T10:38:01.266Z,18.60
2019-05-22T10:40:30.378Z,18.80
2019-05-22T10:42:59.269Z,19.20
2019-05-22T10:45:28.837Z,19.20
2019-05-22T10:47:58.274Z,19.80
2019-05-22T10:50:28.176Z,20.00
2019-05-22T10:52:58.279Z,20.00
2019-05-22T10:55:28.074Z,20.10
2019-05-22T10:57:58.020Z,19.80
2019-05-22T11:00:27.530Z,19.20
2019-05-22T11:02:57.248Z,18.90
2019-05-22T11:05:26.297Z,18.30
2019-05-22T11:07:55.142Z,18.50
2019-05-22T11:10:25.514Z,19.10
2019-05-22T11:12:54.710Z,19.60
2019-05-22T11:15:24.158Z,19.80
2019-05-22T11:17:53.825Z,19.50
2019-05-22T11:20:24.326Z,19.30
2019-05-22T11:22:54.054Z,19.80
2019-05-22T11:25:23.515Z,20.20
2019-05-22T11:27:54.033Z,20.20
2019-05-22T11:30:23.585Z,19.90
2019-05-22T11:32:53.740Z,19.50
2019-05-22T11:35:23.742Z,19.70
2019-05-22T11:37:53.166Z,19.80
2019-05-22T11:40:22.958Z,20.00
2019-05-22T11:42:53.450Z,20.10
2019-05-22T11:45:23.818Z,20.10
2019-05-22T11:47:53.886Z,20.00
2019-05-22T11:50:25.343Z,20.30
2019-05-22T11:52:54.697Z,20.40
2019-05-22T11:55:40.708Z,19.80
2019-05-22T11:57:54.499Z,19.40
2019-05-22T12:00:25.120Z,19.30
2019-05-22T12:02:55.534Z,19.30
2019-05-22T12:05:25.429Z,19.20
2019-05-22T12:07:54.932Z,19.70
2019-05-22T12:10:25.171Z,20.00
2019-05-22T12:12:56.178Z,20.00
2019-05-22T12:15:29.615Z,19.80
2019-05-22T12:17:59.539Z,19.70
2019-05-22T12:20:29.371Z,19.40
2019-05-22T12:22:58.309Z,19.30
2019-05-22T12:25:27.870Z,19.10
2019-05-22T12:27:57.119Z,19.00
2019-05-22T12:30:27.257Z,19.20
2019-05-22T12:32:57.370Z,19.30
2019-05-22T12:35:27.597Z,19.40
2019-05-22T12:37:57.109Z,19.00
2019-05-22T12:40:30.158Z,19.00
2019-05-22T12:42:59.609Z,19.00
2019-05-22T12:45:30.267Z,19.00
2019-05-22T12:48:00.885Z,19.00
2019-05-22T12:50:31.910Z,19.20
2019-05-22T12:53:05.027Z,18.90
2019-05-22T12:55:35.162Z,18.80
2019-05-22T12:58:05.519Z,18.90
2019-05-22T13:00:35.631Z,19.10
2019-05-22T13:03:07.294Z,19.20
2019-05-22T13:05:37.910Z,19.10
2019-05-22T13:08:08.633Z,18.80
2019-05-22T13:10:38.591Z,19.00
2019-05-22T13:13:08.240Z,18.80
2019-05-22T13:15:38.774Z,18.80
2019-05-22T13:18:09.874Z,19.10
2019-05-22T13:20:43.914Z,19.20
2019-05-22T13:23:13.963Z,19.40
2019-05-22T13:25:43.664Z,18.90
2019-05-22T13:28:16.427Z,18.50
2019-05-22T13:30:52.234Z,18.70
2019-05-22T13:33:26.523Z,18.70
2019-05-22T13:35:56.732Z,18.90
2019-05-22T13:38:27.419Z,19.10
2019-05-22T13:40:56.822Z,19.30
2019-05-22T13:43:27.554Z,19.50
2019-05-22T13:45:56.947Z,19.50
2019-05-22T13:48:27.190Z,19.30
2019-05-22T13:50:58.167Z,19.40
2019-05-22T13:53:29.027Z,19.60
2019-05-22T13:55:58.846Z,19.60
2019-05-22T13:58:29.925Z,19.20
2019-05-22T14:00:59.073Z,18.90
2019-05-22T14:03:28.807Z,18.70
2019-05-22T14:05:58.910Z,19.00
2019-05-22T14:08:28.852Z,19.10
2019-05-22T14:10:58.659Z,19.60
2019-05-22T14:13:28.571Z,20.10
2019-05-22T14:15:58.056Z,20.50
2019-05-22T14:18:28.155Z,20.40
2019-05-22T14:20:57.769Z,20.20
2019-05-22T14:23:27.161Z,19.50
2019-05-22T14:25:56.411Z,19.20
2019-05-22T14:28:27.259Z,18.80
2019-05-22T14:30:56.774Z,18.90
2019-05-22T14:33:27.949Z,18.70
2019-05-22T14:35:57.695Z,18.80
2019-05-22T14:38:27.395Z,18.70
2019-05-22T14:40:57.439Z,18.80
2019-05-22T14:43:28.635Z,18.80
2019-05-22T14:45:58.254Z,18.70
2019-05-22T14:48:27.870Z,19.10
2019-05-22T14:50:57.143Z,19.60
2019-05-22T14:53:27.347Z,19.50
2019-05-22T14:55:57.858Z,19.10
2019-05-22T14:58:27.495Z,18.80
2019-05-22T15:00:57.193Z,18.70
2019-05-22T15:03:26.642Z,18.50
2019-05-22T15:05:55.681Z,18.40
2019-05-22T15:08:25.498Z,18.50
2019-05-22T15:10:55.783Z,18.50
2019-05-22T15:13:26.115Z,18.40
2019-05-22T15:21:05.926Z,17.80
2019-05-22T15:23:35.158Z,18.00
2019-05-22T15:26:04.439Z,18.20
2019-05-22T15:28:33.842Z,18.30
2019-05-22T15:31:03.347Z,18.20
2019-05-22T15:33:33.839Z,18.00
2019-05-22T15:36:06.708Z,17.90
2019-05-22T15:38:39.561Z,17.80
2019-05-22T15:41:10.799Z,17.90
2019-05-22T15:43:43.027Z,17.90
2019-05-22T15:46:15.744Z,17.80
2019-05-22T15:48:47.324Z,17.80
2019-05-22T15:51:21.104Z,17.80
2019-05-22T15:53:51.207Z,18.10
2019-05-22T15:56:20.386Z,18.20
2019-05-22T15:58:53.457Z,18.10
2019-05-22T16:01:25.277Z,18.10
2019-05-22T16:03:56.239Z,18.20
2019-05-22T16:06:27.789Z,18.50
2019-05-22T16:08:58.522Z,18.70
2019-05-22T16:11:29.754Z,18.50
2019-05-22T16:14:00.874Z,18.50
2019-05-22T16:16:30.116Z,18.40
2019-05-22T16:19:02.913Z,18.30
2019-05-22T16:21:34.883Z,18.00
2019-05-22T16:24:05.761Z,17.70
2019-05-22T16:26:35.934Z,17.80
2019-05-22T16:29:05.896Z,17.90
2019-05-22T16:31:38.983Z,17.90
2019-05-22T16:34:08.143Z,18.00
2019-05-22T16:36:37.295Z,17.90
2019-05-22T16:39:10.088Z,17.90
2019-05-22T16:41:41.308Z,17.90
2019-05-22T16:44:11.072Z,18.00
2019-05-22T16:46:41.673Z,17.90
2019-05-22T16:49:11.459Z,17.90
2019-05-22T16:51:41.394Z,17.80
2019-05-22T16:54:10.381Z,17.90
2019-05-22T16:56:40.541Z,18.00
2019-05-22T16:59:12.649Z,18.00
2019-05-22T17:01:57.474Z,17.90
2019-05-22T17:04:14.550Z,17.80
2019-05-22T17:06:44.322Z,17.80
2019-05-22T17:09:16.121Z,17.90
2019-05-22T17:11:45.953Z,18.00
2019-05-22T17:14:15.752Z,18.20
2019-05-22T17:16:46.165Z,18.20
2019-05-22T17:19:26.532Z,18.10
2019-05-22T17:21:47.144Z,18.20
2019-05-22T17:24:18.175Z,18.30
2019-05-22T17:26:48.065Z,18.50
2019-05-22T17:29:17.705Z,18.50
2019-05-22T17:31:46.954Z,18.90
2019-05-22T17:34:32.559Z,19.20
2019-05-22T17:37:06.357Z,19.60
2019-05-22T17:39:36.496Z,19.50
2019-05-22T17:42:08.083Z,19.80
2019-05-22T17:44:39.162Z,20.10
2019-05-22T17:47:10.379Z,20.40
2019-05-22T17:49:39.499Z,20.70
2019-05-22T17:52:12.126Z,20.80
2019-05-22T17:54:41.466Z,20.30
2019-05-22T17:57:11.492Z,19.80
2019-05-22T17:59:41.278Z,21.10
2019-05-22T18:02:12.216Z,22.60
2019-05-22T18:04:41.323Z,23.60
2019-05-22T18:07:10.659Z,22.40
2019-05-22T18:09:40.026Z,21.70
2019-05-22T18:12:09.686Z,20.30
2019-05-22T18:14:39.028Z,18.70
2019-05-22T18:17:09.627Z,17.20
2019-05-22T18:19:39.086Z,16.30
2019-05-22T18:22:09.806Z,15.80
2019-05-22T18:24:39.002Z,15.50
2019-05-22T18:27:07.770Z,15.20
2019-05-22T18:29:36.626Z,15.10
2019-05-22T18:32:06.685Z,14.80
2019-05-22T18:34:35.917Z,14.60
2019-05-22T18:37:05.296Z,14.40
2019-05-22T18:39:34.829Z,14.30
2019-05-22T18:42:03.745Z,14.20
2019-05-22T18:44:32.859Z,14.20
2019-05-22T18:47:03.029Z,14.10
2019-05-22T18:49:31.969Z,13.90
2019-05-22T18:52:01.001Z,13.80
2019-05-22T18:54:29.845Z,13.70
2019-05-22T18:56:59.026Z,13.60
2019-05-22T18:59:28.129Z,13.50
2019-05-22T19:01:57.623Z,13.40
2019-05-22T19:04:26.794Z,13.20
2019-05-22T19:06:56.509Z,13.10
2019-05-22T19:09:25.934Z,13.00
2019-05-22T19:11:55.111Z,13.00
2019-05-22T19:14:24.810Z,12.90
2019-05-22T19:16:54.006Z,12.80
2019-05-22T19:19:23.138Z,12.70
2019-05-22T19:21:52.222Z,12.60
2019-05-22T19:24:21.236Z,12.40
2019-05-22T19:26:50.596Z,12.30
2019-05-22T19:29:19.535Z,12.10
2019-05-22T19:31:48.510Z,12.00
2019-05-22T19:34:17.609Z,11.90
2019-05-22T19:36:47.600Z,11.70
2019-05-22T19:39:16.501Z,11.60
2019-05-22T19:41:59.894Z,11.50
2019-05-22T19:44:16.979Z,11.40
2019-05-22T19:46:46.187Z,11.30
2019-05-22T19:49:16.355Z,11.20
2019-05-22T19:51:45.554Z,11.10
2019-05-22T19:54:14.493Z,11.10
2019-05-22T19:56:43.915Z,10.90
2019-05-22T19:59:13.360Z,10.90
2019-05-22T20:01:43.411Z,10.80
2019-05-22T20:04:12.391Z,10.70
2019-05-22T20:06:41.982Z,10.70
2019-05-22T20:09:11.683Z,10.60
2019-05-22T20:11:40.555Z,10.50
2019-05-22T20:14:09.408Z,10.50
2019-05-22T20:16:39.589Z,10.40
2019-05-22T20:19:09.356Z,10.30
2019-05-22T20:21:39.719Z,10.30
2019-05-22T20:24:09.326Z,10.20
2019-05-22T20:26:38.399Z,10.10
2019-05-22T20:29:08.594Z,10.10
2019-05-22T20:31:37.848Z,10.00
2019-05-22T20:34:07.330Z,10.00
2019-05-22T20:36:36.298Z,9.90
2019-05-22T20:39:09.259Z,9.80
2019-05-22T20:41:38.505Z,9.80
2019-05-22T20:44:07.875Z,9.70
2019-05-22T20:46:38.392Z,9.60
2019-05-22T20:49:10.327Z,9.50
2019-05-22T20:51:40.017Z,9.50
2019-05-22T20:54:09.843Z,9.40
2019-05-22T20:56:40.482Z,9.40
2019-05-22T20:59:10.550Z,9.30
2019-05-22T21:01:39.839Z,9.30
2019-05-22T21:04:12.653Z,9.20
2019-05-22T21:06:49.754Z,9.20
2019-05-22T21:09:19.485Z,9.10
2019-05-22T21:11:49.691Z,9.00
2019-05-22T21:14:19.767Z,8.90
2019-05-22T21:16:49.557Z,8.90
2019-05-22T21:19:18.986Z,8.80
2019-05-22T21:21:48.193Z,8.70
2019-05-22T21:24:17.439Z,8.60
2019-05-22T21:26:46.972Z,8.60
2019-05-22T21:29:17.587Z,8.60
2019-05-22T21:31:47.936Z,8.60
2019-05-22T21:34:17.079Z,8.60
2019-05-22T21:36:46.338Z,8.60
2019-05-22T21:39:16.805Z,8.50
2019-05-22T21:41:45.678Z,8.50
2019-05-22T21:44:14.834Z,8.40
2019-05-22T21:46:43.762Z,8.40
2019-05-22T21:49:13.298Z,8.30
2019-05-22T21:51:42.919Z,8.30
2019-05-22T21:54:13.171Z,8.20
2019-05-22T21:56:44.798Z,8.20
2019-05-22T21:59:13.869Z,8.10
2019-05-22T22:01:50.831Z,8.00
2019-05-22T22:04:22.555Z,8.00
2019-05-22T22:06:53.779Z,7.90
2019-05-22T22:09:23.652Z,7.90
2019-05-22T22:11:52.688Z,7.80
2019-05-22T22:14:23.090Z,7.80
2019-05-22T22:16:52.185Z,7.80
2019-05-22T22:19:22.215Z,7.80
2019-05-22T22:21:51.601Z,7.70
2019-05-22T22:24:20.773Z,7.70
2019-05-22T22:26:50.380Z,7.70
2019-05-22T22:29:20.605Z,7.60
2019-05-22T22:31:51.166Z,7.60
2019-05-22T22:34:33.383Z,7.60
2019-05-22T22:37:04.432Z,7.60
2019-05-22T22:39:34.656Z,7.50
2019-05-22T22:42:04.702Z,7.50
2019-05-22T22:44:34.967Z,7.50
2019-05-22T22:47:11.694Z,7.40
2019-05-22T22:49:42.003Z,7.40
2019-05-22T22:52:14.862Z,7.30
2019-05-22T22:54:44.299Z,7.20
2019-05-22T22:57:13.915Z,7.10
2019-05-22T22:59:42.880Z,7.00
2019-05-22T23:02:15.525Z,6.90
2019-05-22T23:04:46.463Z,6.80
2019-05-22T23:07:19.081Z,6.70
2019-05-22T23:09:49.193Z,6.70
2019-05-22T23:12:19.558Z,6.60
2019-05-22T23:14:52.490Z,6.60
2019-05-22T23:17:22.176Z,6.50
2019-05-22T23:19:49.995Z,6.50
2019-05-22T23:22:24.776Z,6.50
2019-05-22T23:24:55.977Z,6.50
2019-05-22T23:27:27.487Z,6.50
2019-05-22T23:29:57.759Z,6.50
2019-05-22T23:32:28.238Z,6.50
2019-05-22T23:34:59.328Z,6.40
2019-05-22T23:37:28.544Z,6.40
2019-05-22T23:39:57.895Z,6.40
2019-05-22T23:42:33.489Z,6.30
2019-05-22T23:45:06.439Z,6.30
2019-05-22T23:47:45.549Z,6.30
2019-05-22T23:50:15.379Z,6.20
2019-05-22T23:52:44.623Z,6.10
2019-05-22T23:55:14.536Z,6.20
2019-05-22T23:57:43.720Z,6.20
